createdAt,value
2023-04-11T00:01:07.905Z,76.50
2023-04-11T00:03:34.718Z,76.07
2023-04-11T00:06:01.434Z,75.32
2023-04-11T00:08:27.965Z,75.47
2023-04-11T00:10:54.468Z,74.58
2023-04-11T00:13:21.008Z,74.55
2023-04-11T00:15:47.897Z,74.91
2023-04-11T00:18:14.557Z,74.83
2023-04-11T00:20:41.041Z,75.47
2023-04-11T00:23:08.880Z,75.59
2023-04-11T00:25:37.236Z,75.07
2023-04-11T00:28:04.631Z,75.69
2023-04-11T00:30:31.171Z,75.86
2023-04-11T00:32:57.678Z,76.15
2023-04-11T00:35:24.282Z,75.44
2023-04-11T00:37:56.008Z,75.64
2023-04-11T00:40:22.848Z,76.27
2023-04-11T00:42:49.404Z,75.66
2023-04-11T00:45:15.933Z,76.01
2023-04-11T00:47:42.513Z,76.50
2023-04-11T00:50:09.480Z,76.96
2023-04-11T00:52:36.949Z,77.34
2023-04-11T00:55:06.978Z,77.37
2023-04-11T00:57:33.901Z,77.42
2023-04-11T01:00:02.300Z,77.57
2023-04-11T01:02:29.672Z,78.40
2023-04-11T01:04:56.747Z,78.63
2023-04-11T01:07:24.767Z,78.27
2023-04-11T01:09:51.524Z,78.70
2023-04-11T01:12:18.212Z,78.88
2023-04-11T01:14:47.784Z,79.23
2023-04-11T01:17:14.695Z,79.87
2023-04-11T01:19:41.449Z,80.50
2023-04-11T01:22:08.155Z,79.95
2023-04-11T01:24:34.729Z,80.34
2023-04-11T01:27:04.258Z,80.18
2023-04-11T01:29:31.618Z,79.80
2023-04-11T01:31:58.155Z,80.11
2023-04-11T01:34:28.141Z,79.77
2023-04-11T01:36:55.260Z,79.71
2023-04-11T01:39:21.736Z,79.61
2023-04-11T01:41:48.702Z,79.03
2023-04-11T01:44:15.492Z,78.78
2023-04-11T01:46:43.147Z,78.76
2023-04-11T01:49:09.802Z,79.00
2023-04-11T01:51:36.527Z,78.13
2023-04-11T01:54:03.937Z,78.48
2023-04-11T01:56:30.439Z,78.75
2023-04-11T01:58:59.104Z,78.48
2023-04-11T02:01:25.756Z,78.42
2023-04-11T02:03:52.432Z,78.79
2023-04-11T02:06:18.973Z,78.71
2023-04-11T02:08:45.439Z,78.77
2023-04-11T02:11:12.051Z,78.86
2023-04-11T02:13:38.586Z,78.74
2023-04-11T02:16:10.121Z,79.13
2023-04-11T02:18:36.961Z,78.89
2023-04-11T02:21:04.745Z,78.98
2023-04-11T02:23:31.227Z,78.67
2023-04-11T02:25:57.782Z,79.07
2023-04-11T02:28:24.349Z,78.34
2023-04-11T02:30:51.091Z,78.36
2023-04-11T02:33:17.691Z,78.34
2023-04-11T02:35:44.259Z,78.64
2023-04-11T02:38:10.771Z,78.71
2023-04-11T02:40:37.291Z,78.91
2023-04-11T02:43:04.326Z,78.82
2023-04-11T02:45:31.193Z,78.62
2023-04-11T02:47:58.459Z,79.54
2023-04-11T02:50:27.076Z,78.73
2023-04-11T02:52:53.799Z,78.89
2023-04-11T02:55:23.224Z,79.08
2023-04-11T02:57:50.665Z,78.78
2023-04-11T03:00:19.653Z,78.97
2023-04-11T03:02:46.235Z,78.79
2023-04-11T03:05:12.819Z,78.89
2023-04-11T03:07:40.644Z,78.58
2023-04-11T03:10:07.859Z,78.46
2023-04-11T03:12:34.355Z,78.61
2023-04-11T03:15:00.871Z,78.24
2023-04-11T03:17:27.377Z,78.09
2023-04-11T03:19:53.917Z,77.88
2023-04-11T03:22:20.561Z,78.04
2023-04-11T03:24:47.117Z,78.61
2023-04-11T03:27:13.631Z,78.52
2023-04-11T03:29:40.210Z,78.18
2023-04-11T03:32:06.825Z,78.42
2023-04-11T03:34:33.511Z,78.75
2023-04-11T03:36:59.991Z,78.17
2023-04-11T03:39:26.472Z,78.06
2023-04-11T03:41:53.012Z,78.23
2023-04-11T03:44:19.687Z,78.41
2023-04-11T03:46:46.298Z,78.31
2023-04-11T03:49:13.175Z,78.13
2023-04-11T03:51:39.629Z,78.54
2023-04-11T03:54:06.097Z,78.97
2023-04-11T03:56:32.721Z,79.30
2023-04-11T03:58:59.209Z,78.91
2023-04-11T04:01:25.824Z,79.43
2023-04-11T04:03:52.692Z,78.91
2023-04-11T04:06:19.423Z,78.51
2023-04-11T04:08:46.058Z,79.22
2023-04-11T04:11:12.715Z,80.14
2023-04-11T04:13:39.375Z,80.46
2023-04-11T04:16:06.437Z,79.98
2023-04-11T04:18:33.160Z,79.89
2023-04-11T04:20:59.776Z,80.19
2023-04-11T04:23:26.906Z,80.61
2023-04-11T04:25:53.503Z,80.48
2023-04-11T04:28:22.599Z,80.73
2023-04-11T04:30:50.157Z,80.51
2023-04-11T04:33:18.682Z,80.67
2023-04-11T04:35:45.340Z,80.32
2023-04-11T04:38:17.729Z,80.70
2023-04-11T04:40:44.617Z,80.54
2023-04-11T04:43:18.285Z,80.55
2023-04-11T04:45:45.539Z,80.75
2023-04-11T04:48:14.451Z,79.93
2023-04-11T04:50:41.272Z,79.85
2023-04-11T04:53:07.824Z,79.84
2023-04-11T04:55:34.502Z,79.53
2023-04-11T04:58:01.338Z,79.16
2023-04-11T05:00:28.135Z,79.65
2023-04-11T05:02:55.118Z,79.69
2023-04-11T05:05:21.730Z,79.24
2023-04-11T05:07:48.550Z,78.69
2023-04-11T05:10:15.383Z,78.88
2023-04-11T05:12:41.909Z,78.68
2023-04-11T05:15:11.801Z,78.62
2023-04-11T05:17:38.757Z,78.33
2023-04-11T05:20:07.788Z,77.44
2023-04-11T05:22:34.754Z,78.01
2023-04-11T05:25:03.124Z,77.31
2023-04-11T05:27:29.639Z,77.80
2023-04-11T05:29:56.177Z,78.22
2023-04-11T05:32:22.987Z,78.02
2023-04-11T05:34:59.141Z,77.69
2023-04-11T05:37:26.419Z,77.08
2023-04-11T05:39:53.057Z,76.71
2023-04-11T05:42:19.595Z,77.20
2023-04-11T05:44:46.277Z,77.30
2023-04-11T05:47:13.332Z,76.75
2023-04-11T05:49:39.882Z,75.55
2023-04-11T05:52:06.836Z,74.90
2023-04-11T05:54:35.285Z,75.73
2023-04-11T05:57:03.106Z,75.82
2023-04-11T05:59:31.847Z,75.51
2023-04-11T06:01:59.012Z,74.52
2023-04-11T06:04:26.116Z,73.49
2023-04-11T06:06:53.732Z,73.09
2023-04-11T06:09:20.621Z,72.57
2023-04-11T06:11:47.284Z,72.40
2023-04-11T06:14:14.065Z,72.04
2023-04-11T06:16:41.279Z,71.06
2023-04-11T06:19:07.863Z,72.15
2023-04-11T06:21:34.712Z,70.75
2023-04-11T06:24:11.581Z,70.48
2023-04-11T06:26:38.285Z,70.63
2023-04-11T06:29:05.910Z,70.59
2023-04-11T06:31:33.438Z,70.26
2023-04-11T06:34:01.562Z,69.23
2023-04-11T06:36:28.527Z,69.19
2023-04-11T06:38:55.048Z,68.89
2023-04-11T06:41:21.883Z,68.59
2023-04-11T06:43:48.484Z,68.66
2023-04-11T06:46:15.065Z,68.20
2023-04-11T06:48:41.898Z,67.72
2023-04-11T06:51:10.378Z,66.86
2023-04-11T06:53:37.020Z,65.57
2023-04-11T06:56:05.374Z,58.93
2023-04-11T06:58:31.923Z,54.00
2023-04-11T07:00:58.832Z,50.40
2023-04-11T07:03:25.834Z,47.56
2023-04-11T07:05:52.610Z,48.68
2023-04-11T07:08:19.178Z,47.84
2023-04-11T07:10:46.075Z,45.80
2023-04-11T07:13:12.867Z,43.51
2023-04-11T07:15:39.912Z,43.54
2023-04-11T07:18:07.046Z,44.16
2023-04-11T07:20:34.522Z,47.09
2023-04-11T07:23:01.200Z,45.92
2023-04-11T07:25:31.472Z,40.56
2023-04-11T07:27:58.189Z,39.36
2023-04-11T07:30:24.837Z,38.54
2023-04-11T07:32:51.838Z,39.09
2023-04-11T07:35:18.768Z,39.29
2023-04-11T07:37:45.627Z,38.90
2023-04-11T07:40:15.733Z,43.12
2023-04-11T07:42:42.569Z,39.79
2023-04-11T07:45:09.770Z,39.02
2023-04-11T07:47:36.542Z,42.50
2023-04-11T07:50:04.717Z,42.27
2023-04-11T07:52:31.554Z,40.77
2023-04-11T07:54:58.185Z,37.30
2023-04-11T07:57:24.720Z,41.44
2023-04-11T07:59:51.349Z,41.40
2023-04-11T08:02:18.433Z,38.93
2023-04-11T08:04:45.197Z,43.26
2023-04-11T08:07:11.899Z,45.13
2023-04-11T08:09:38.870Z,47.22
2023-04-11T08:12:06.242Z,47.71
2023-04-11T08:14:32.920Z,49.72
2023-04-11T08:17:00.215Z,49.62
2023-04-11T08:19:27.227Z,49.98
2023-04-11T08:21:54.176Z,51.04
2023-04-11T08:24:21.205Z,49.43
2023-04-11T08:26:48.025Z,50.82
2023-04-11T08:29:14.607Z,49.69
2023-04-11T08:31:47.026Z,49.47
2023-04-11T08:34:13.857Z,48.44
2023-04-11T08:36:41.698Z,49.46
2023-04-11T08:39:08.888Z,48.07
2023-04-11T08:41:35.773Z,49.03
2023-04-11T08:44:03.783Z,48.00
2023-04-11T08:46:33.161Z,49.47
2023-04-11T08:49:00.727Z,48.14
2023-04-11T08:51:27.600Z,48.20
2023-04-11T08:53:58.013Z,47.35
2023-04-11T08:56:24.900Z,50.05
2023-04-11T08:58:51.824Z,49.23
2023-04-11T09:01:25.191Z,48.80
2023-04-11T09:03:52.460Z,48.70
2023-04-11T09:06:19.289Z,47.09
2023-04-11T09:08:45.938Z,48.49
2023-04-11T09:11:12.572Z,49.97
2023-04-11T09:13:39.483Z,49.44
2023-04-11T09:16:09.763Z,48.37
2023-04-11T09:18:38.458Z,48.95
2023-04-11T09:21:11.701Z,48.78
2023-04-11T09:23:38.753Z,47.56
2023-04-11T09:26:06.692Z,47.15
2023-04-11T09:28:46.244Z,47.16
2023-04-11T09:31:13.165Z,47.24
2023-04-11T09:33:52.842Z,46.25
2023-04-11T09:36:21.986Z,48.10
2023-04-11T09:38:48.663Z,46.06
2023-04-11T09:41:15.696Z,46.25
2023-04-11T09:43:50.784Z,45.85
2023-04-11T09:46:21.441Z,46.15
2023-04-11T09:48:52.734Z,45.88
2023-04-11T09:51:31.852Z,45.30
2023-04-11T09:54:01.757Z,45.35
2023-04-11T09:56:29.045Z,45.79
2023-04-11T09:58:57.611Z,46.27
2023-04-11T10:01:25.130Z,45.91
2023-04-11T10:03:52.768Z,46.14
2023-04-11T10:06:31.810Z,46.31
2023-04-11T10:09:12.708Z,45.79
2023-04-11T10:11:46.158Z,46.89
2023-04-11T10:14:37.497Z,47.49
2023-04-11T10:17:21.833Z,46.74
2023-04-11T10:19:51.597Z,47.28
2023-04-11T10:22:43.647Z,48.17
2023-04-11T10:25:18.530Z,47.63
2023-04-11T10:28:01.479Z,47.56
2023-04-11T10:31:00.857Z,45.90
2023-04-11T10:33:28.258Z,45.64
2023-04-11T10:36:09.942Z,44.65
2023-04-11T10:38:36.998Z,45.16
2023-04-11T10:41:19.042Z,45.27
2023-04-11T10:43:46.461Z,43.82
2023-04-11T10:46:23.893Z,44.05
2023-04-11T10:49:00.979Z,43.79
2023-04-11T10:51:32.020Z,42.31
2023-04-11T10:54:00.182Z,43.64
2023-04-11T10:56:49.022Z,42.15
2023-04-11T10:59:36.543Z,41.76
2023-04-11T11:02:05.044Z,43.44
2023-04-11T11:04:32.332Z,41.36
2023-04-11T11:06:59.789Z,39.94
2023-04-11T11:09:28.497Z,39.33
2023-04-11T11:12:22.887Z,39.30
2023-04-11T11:14:49.915Z,39.40
2023-04-11T11:17:17.262Z,39.07
2023-04-11T11:19:48.149Z,38.84
2023-04-11T11:22:16.422Z,39.87
2023-04-11T11:24:43.151Z,39.72
2023-04-11T11:27:23.746Z,40.37
2023-04-11T11:29:50.932Z,40.10
2023-04-11T11:32:32.860Z,40.53
2023-04-11T11:34:59.560Z,40.17
2023-04-11T11:37:26.248Z,40.27
2023-04-11T11:39:53.662Z,39.78
2023-04-11T11:42:20.812Z,39.96
2023-04-11T11:44:47.772Z,40.03
2023-04-11T11:47:16.950Z,39.18
2023-04-11T11:49:47.837Z,39.10
2023-04-11T11:52:43.695Z,37.87
2023-04-11T11:55:19.404Z,38.54
2023-04-11T11:57:47.030Z,38.58
2023-04-11T12:00:14.909Z,38.33
2023-04-11T12:02:45.103Z,38.97
2023-04-11T12:05:12.633Z,37.95
2023-04-11T12:07:39.686Z,39.02
2023-04-11T12:10:09.179Z,38.84
2023-04-11T12:12:36.965Z,39.46
2023-04-11T12:15:11.939Z,39.47
2023-04-11T12:17:39.039Z,40.05
2023-04-11T12:20:07.840Z,39.83
2023-04-11T12:22:35.107Z,39.80
2023-04-11T12:25:12.347Z,39.82
2023-04-11T12:27:41.016Z,39.48
2023-04-11T12:30:08.954Z,38.80
2023-04-11T12:32:36.105Z,38.83
2023-04-11T12:35:05.335Z,39.41
2023-04-11T12:37:32.792Z,38.44
2023-04-11T12:39:59.620Z,38.35
2023-04-11T12:42:27.380Z,39.21
2023-04-11T12:44:54.615Z,39.33
2023-04-11T12:47:21.500Z,39.18
2023-04-11T12:49:48.125Z,38.52
2023-04-11T12:52:15.058Z,38.88
2023-04-11T12:54:41.687Z,39.21
2023-04-11T12:57:08.300Z,40.07
2023-04-11T12:59:35.123Z,42.26
2023-04-11T13:02:02.104Z,43.92
2023-04-11T13:04:28.990Z,44.11
2023-04-11T13:07:00.796Z,44.92
2023-04-11T13:09:31.706Z,45.53
2023-04-11T13:11:58.983Z,46.57
2023-04-11T13:14:25.676Z,46.33
2023-04-11T13:16:52.402Z,46.61
2023-04-11T13:19:19.118Z,45.78
2023-04-11T13:21:45.647Z,46.05
2023-04-11T13:24:12.237Z,46.05
2023-04-11T13:26:39.532Z,46.35
2023-04-11T13:29:07.763Z,46.60
2023-04-11T13:31:34.792Z,45.95
2023-04-11T13:34:03.678Z,45.84
2023-04-11T13:36:32.265Z,45.29
2023-04-11T13:38:59.142Z,46.31
2023-04-11T13:41:26.179Z,46.20
2023-04-11T13:43:53.036Z,45.76
2023-04-11T13:46:21.891Z,46.00
2023-04-11T13:48:49.002Z,45.54
2023-04-11T13:51:15.922Z,45.73
2023-04-11T13:53:42.727Z,46.74
2023-04-11T13:56:09.434Z,46.42
2023-04-11T13:58:36.922Z,45.42
2023-04-11T14:01:05.064Z,45.07
2023-04-11T14:03:33.871Z,44.33
2023-04-11T14:06:01.322Z,44.49
2023-04-11T14:08:29.273Z,45.66
2023-04-11T14:10:56.470Z,44.69
2023-04-11T14:13:23.259Z,45.11
2023-04-11T14:16:01.381Z,44.70
2023-04-11T14:18:34.311Z,44.03
2023-04-11T14:21:01.946Z,44.34
2023-04-11T14:23:30.189Z,43.67
2023-04-11T14:25:57.021Z,43.21
2023-04-11T14:28:26.439Z,43.09
2023-04-11T14:30:53.843Z,42.84
2023-04-11T14:33:20.736Z,43.57
2023-04-11T14:35:47.656Z,43.92
2023-04-11T14:38:15.856Z,44.36
2023-04-11T14:40:43.021Z,44.37
2023-04-11T14:43:09.909Z,43.36
2023-04-11T14:45:36.957Z,43.68
2023-04-11T14:48:05.581Z,43.94
2023-04-11T14:50:32.579Z,43.43
2023-04-11T14:52:59.224Z,44.08
2023-04-11T14:55:25.860Z,44.12
2023-04-11T14:57:54.874Z,43.80
2023-04-11T15:00:22.910Z,44.21
2023-04-11T15:02:52.901Z,43.30
2023-04-11T15:05:20.244Z,43.26
2023-04-11T15:07:48.157Z,43.72
2023-04-11T15:10:20.822Z,43.78
2023-04-11T15:12:47.436Z,44.31
2023-04-11T15:15:14.521Z,44.32
2023-04-11T15:17:47.111Z,44.75
2023-04-11T15:20:17.113Z,44.30
2023-04-11T15:22:45.162Z,44.26
2023-04-11T15:25:17.072Z,43.93
2023-04-11T15:27:44.014Z,44.38
2023-04-11T15:30:11.420Z,44.14
2023-04-11T15:32:47.140Z,44.05
2023-04-11T15:35:13.770Z,43.91
2023-04-11T15:37:41.140Z,42.59
2023-04-11T15:40:12.202Z,42.90
2023-04-11T15:42:39.157Z,43.13
2023-04-11T15:45:06.755Z,42.88
2023-04-11T15:47:33.669Z,43.12
2023-04-11T15:50:04.242Z,43.98
2023-04-11T15:52:30.779Z,43.28
2023-04-11T15:54:57.322Z,42.68
2023-04-11T15:57:23.921Z,43.12
2023-04-11T15:59:50.534Z,43.29
2023-04-11T16:02:17.202Z,43.86
2023-04-11T16:04:47.011Z,44.82
2023-04-11T16:07:18.769Z,45.14
2023-04-11T16:09:46.302Z,45.56
2023-04-11T16:12:12.792Z,45.84
2023-04-11T16:14:39.251Z,45.65
2023-04-11T16:17:06.365Z,45.14
2023-04-11T16:19:33.186Z,45.87
2023-04-11T16:21:59.771Z,45.60
2023-04-11T16:24:28.795Z,45.80
2023-04-11T16:26:59.310Z,46.13
2023-04-11T16:29:25.903Z,45.80
2023-04-11T16:31:52.642Z,46.14
2023-04-11T16:34:19.663Z,46.66
2023-04-11T16:36:46.390Z,46.59
2023-04-11T16:39:13.139Z,46.63
2023-04-11T16:41:39.771Z,47.06
2023-04-11T16:44:11.450Z,47.47
2023-04-11T16:46:41.649Z,47.92
2023-04-11T16:49:08.630Z,48.53
2023-04-11T16:51:38.137Z,48.75
2023-04-11T16:54:09.541Z,49.10
2023-04-11T16:56:36.817Z,49.22
2023-04-11T16:59:04.975Z,49.57
2023-04-11T17:01:32.434Z,49.15
2023-04-11T17:04:00.962Z,49.47
2023-04-11T17:06:28.134Z,49.72
2023-04-11T17:08:57.067Z,50.30
2023-04-11T17:11:23.795Z,50.19
2023-04-11T17:13:50.993Z,50.88
2023-04-11T17:16:18.351Z,51.38
2023-04-11T17:18:45.179Z,51.24
2023-04-11T17:21:11.804Z,51.70
2023-04-11T17:23:42.989Z,51.77
2023-04-11T17:26:11.833Z,52.19
2023-04-11T17:28:39.863Z,52.53
2023-04-11T17:31:13.157Z,52.38
2023-04-11T17:33:40.237Z,51.83
2023-04-11T17:36:09.310Z,52.45
2023-04-11T17:38:37.438Z,52.65
2023-04-11T17:41:13.539Z,52.84
2023-04-11T17:43:41.560Z,53.01
2023-04-11T17:46:08.915Z,53.06
2023-04-11T17:48:36.970Z,53.15
2023-04-11T17:51:05.556Z,53.46
2023-04-11T17:53:32.875Z,53.44
2023-04-11T17:56:04.839Z,53.89
2023-04-11T17:58:31.927Z,53.97
2023-04-11T18:00:59.612Z,54.40
2023-04-11T18:03:26.504Z,54.51
2023-04-11T18:05:54.651Z,54.50
2023-04-11T18:08:26.029Z,55.00
2023-04-11T18:11:00.172Z,55.05
2023-04-11T18:13:27.697Z,55.42
2023-04-11T18:15:54.320Z,55.66
2023-04-11T18:18:21.277Z,55.40
2023-04-11T18:20:48.134Z,55.60
2023-04-11T18:23:14.688Z,55.53
2023-04-11T18:25:41.406Z,55.85
2023-04-11T18:28:08.090Z,55.97
2023-04-11T18:30:34.563Z,56.01
2023-04-11T18:33:01.807Z,56.31
2023-04-11T18:35:28.772Z,56.44
2023-04-11T18:37:55.902Z,56.64
2023-04-11T18:40:22.763Z,56.94
2023-04-11T18:42:51.987Z,57.22
2023-04-11T18:45:21.858Z,57.16
2023-04-11T18:47:48.965Z,57.45
2023-04-11T18:50:16.191Z,57.38
2023-04-11T18:52:44.598Z,57.87
2023-04-11T18:55:12.419Z,58.09
2023-04-11T18:57:39.391Z,58.21
2023-04-11T19:00:18.639Z,58.41
2023-04-11T19:02:46.823Z,58.69
2023-04-11T19:05:14.223Z,58.63
2023-04-11T19:07:42.179Z,58.88
2023-04-11T19:10:10.339Z,59.20
2023-04-11T19:12:37.211Z,59.46
2023-04-11T19:15:09.190Z,59.31
2023-04-11T19:17:36.671Z,59.69
2023-04-11T19:20:07.268Z,59.82
2023-04-11T19:22:34.603Z,59.79
2023-04-11T19:25:01.332Z,60.03
2023-04-11T19:27:27.968Z,60.38
2023-04-11T19:29:54.768Z,60.34
2023-04-11T19:32:21.943Z,60.58
2023-04-11T19:34:49.583Z,61.04
2023-04-11T19:37:19.409Z,61.01
2023-04-11T19:39:46.238Z,60.91
2023-04-11T19:42:12.804Z,61.15
2023-04-11T19:44:40.063Z,61.65
2023-04-11T19:47:06.771Z,61.65
2023-04-11T19:49:33.361Z,61.61
2023-04-11T19:51:59.985Z,61.54
2023-04-11T19:54:27.023Z,60.89
2023-04-11T19:56:53.643Z,60.74
2023-04-11T19:59:20.800Z,60.82
2023-04-11T20:01:47.572Z,60.65
2023-04-11T20:04:15.870Z,60.69
2023-04-11T20:06:44.278Z,61.25
2023-04-11T20:09:11.919Z,61.48
2023-04-11T20:11:39.487Z,61.30
2023-04-11T20:14:07.216Z,60.97
2023-04-11T20:16:33.808Z,61.35
2023-04-11T20:19:01.541Z,61.18
2023-04-11T20:21:28.446Z,61.81
2023-04-11T20:23:55.013Z,61.94
2023-04-11T20:26:21.802Z,63.36
2023-04-11T20:28:49.783Z,63.32
2023-04-11T20:31:16.704Z,63.37
2023-04-11T20:33:44.207Z,63.14
2023-04-11T20:36:11.416Z,63.89
2023-04-11T20:38:38.122Z,63.92
2023-04-11T20:41:05.795Z,64.15
2023-04-11T20:43:32.401Z,64.19
2023-04-11T20:45:59.215Z,63.78
2023-04-11T20:48:25.990Z,63.87
2023-04-11T20:50:53.657Z,63.08
2023-04-11T20:53:20.254Z,62.71
2023-04-11T20:55:46.896Z,62.52
2023-04-11T20:58:17.291Z,61.67
2023-04-11T21:00:44.531Z,61.88
2023-04-11T21:03:11.321Z,61.67
2023-04-11T21:05:38.396Z,61.46
2023-04-11T21:08:06.425Z,61.72
2023-04-11T21:10:32.949Z,61.38
2023-04-11T21:12:59.634Z,61.41
2023-04-11T21:15:26.287Z,63.15
2023-04-11T21:17:52.885Z,67.23
2023-04-11T21:20:20.288Z,69.84
2023-04-11T21:22:48.068Z,72.19
2023-04-11T21:25:15.981Z,73.63
2023-04-11T21:27:43.311Z,73.84
2023-04-11T21:30:10.537Z,75.76
2023-04-11T21:32:37.163Z,76.83
2023-04-11T21:35:10.301Z,77.68
2023-04-11T21:37:36.808Z,77.84
2023-04-11T21:40:04.342Z,78.17
2023-04-11T21:42:31.206Z,78.10
2023-04-11T21:44:57.737Z,77.44
2023-04-11T21:47:24.250Z,77.97
2023-04-11T21:49:51.017Z,79.02
2023-04-11T21:52:17.670Z,78.07
2023-04-11T21:54:44.347Z,77.62
2023-04-11T21:57:11.309Z,77.79
2023-04-11T21:59:39.125Z,78.12
2023-04-11T22:02:06.499Z,78.45
2023-04-11T22:04:39.019Z,78.99
2023-04-11T22:07:14.934Z,79.18
2023-04-11T22:09:46.403Z,79.16
2023-04-11T22:12:17.329Z,79.17
2023-04-11T22:14:43.854Z,79.24
2023-04-11T22:17:10.409Z,79.22
2023-04-11T22:19:36.953Z,78.96
2023-04-11T22:22:08.207Z,79.50
2023-04-11T22:24:34.857Z,81.56
2023-04-11T22:27:04.201Z,82.44
2023-04-11T22:29:31.239Z,81.38
2023-04-11T22:31:59.480Z,81.30
2023-04-11T22:34:29.719Z,80.63
2023-04-11T22:36:57.718Z,80.81
2023-04-11T22:39:25.567Z,82.16
2023-04-11T22:41:52.586Z,82.32
2023-04-11T22:44:19.299Z,83.03
2023-04-11T22:47:06.756Z,83.89
2023-04-11T22:49:40.282Z,84.12
2023-04-11T22:52:08.066Z,84.73
2023-04-11T22:54:35.213Z,84.26
2023-04-11T22:57:01.748Z,83.90
2023-04-11T22:59:28.500Z,84.49
2023-04-11T23:01:55.077Z,84.33
2023-04-11T23:04:22.159Z,84.42
2023-04-11T23:06:52.056Z,84.48
2023-04-11T23:09:18.675Z,85.20
2023-04-11T23:11:45.814Z,84.93
2023-04-11T23:14:14.298Z,85.62
2023-04-11T23:16:44.458Z,85.47
2023-04-11T23:19:11.082Z,85.65
2023-04-11T23:21:37.859Z,85.79
2023-04-11T23:24:06.681Z,85.17
2023-04-11T23:26:33.489Z,86.03
2023-04-11T23:29:02.477Z,85.92
2023-04-11T23:31:30.096Z,85.88
2023-04-11T23:33:56.963Z,85.47
2023-04-11T23:36:23.827Z,85.66
2023-04-11T23:38:50.278Z,85.52
2023-04-11T23:41:16.765Z,84.95
2023-04-11T23:43:43.373Z,84.93
2023-04-11T23:46:09.962Z,84.28
2023-04-11T23:48:36.971Z,84.66
2023-04-11T23:51:04.376Z,83.59
2023-04-11T23:53:31.748Z,83.22
2023-04-11T23:55:58.377Z,84.51
2023-04-11T23:58:24.992Z,84.59
